createdAt,value
2023-04-05T00:05:12.092Z,31.60
2023-04-05T00:15:37.727Z,36.40
2023-04-05T00:26:03.749Z,33.20
2023-04-05T00:36:29.753Z,31.20
2023-04-05T00:46:56.234Z,34.20
2023-04-05T00:57:22.260Z,37.10
2023-04-05T01:07:55.678Z,35.30
2023-04-05T01:18:22.348Z,35.90
2023-04-05T01:29:30.480Z,41.70
2023-04-05T01:39:57.049Z,38.90
2023-04-05T01:50:23.249Z,39.00
2023-04-05T02:00:49.466Z,38.00
2023-04-05T02:11:16.118Z,39.40
2023-04-05T02:21:42.260Z,41.20
2023-04-05T02:32:09.025Z,39.80
2023-04-05T02:42:34.563Z,44.00
2023-04-05T02:53:01.364Z,49.70
2023-04-05T03:03:29.124Z,48.20
2023-04-05T03:13:55.268Z,48.20
2023-04-05T03:24:21.130Z,45.60
2023-04-05T03:34:47.297Z,48.70
2023-04-05T03:45:13.488Z,44.20
2023-04-05T03:55:50.626Z,43.20
2023-04-05T04:06:19.150Z,43.00
2023-04-05T04:16:45.934Z,41.20
2023-04-05T04:27:12.388Z,44.60
2023-04-05T04:37:38.467Z,39.90
2023-04-05T04:48:05.200Z,62.60
2023-04-05T04:58:31.480Z,46.30
2023-04-05T05:08:57.729Z,29.10
2023-04-05T05:19:23.871Z,31.50
2023-04-05T05:29:49.478Z,26.30
2023-04-05T05:40:16.419Z,23.10
2023-04-05T05:50:42.273Z,27.20
2023-04-05T06:01:08.947Z,25.80
2023-04-05T06:11:38.850Z,28.00
2023-04-05T06:22:08.093Z,27.60
2023-04-05T06:32:33.450Z,29.30
2023-04-05T06:42:59.650Z,29.60
2023-04-05T06:53:27.756Z,35.00
2023-04-05T07:03:53.432Z,35.10
2023-04-05T07:14:19.731Z,23.70
2023-04-05T07:24:46.301Z,22.70
2023-04-05T07:35:12.776Z,21.10
2023-04-05T07:45:38.084Z,17.60
2023-04-05T07:56:06.563Z,13.60
2023-04-05T08:06:32.459Z,11.70
2023-04-05T08:16:58.375Z,7.20
2023-04-05T08:27:23.976Z,5.30
2023-04-05T08:37:50.184Z,6.70
2023-04-05T08:48:16.973Z,6.40
2023-04-05T08:58:49.654Z,5.30
2023-04-05T09:09:17.748Z,4.60
2023-04-05T09:19:43.917Z,3.40
2023-04-05T09:30:25.101Z,3.90
2023-04-05T09:40:52.665Z,2.90
2023-04-05T09:51:18.785Z,2.40
2023-04-05T10:01:52.912Z,2.70
2023-04-05T10:12:27.129Z,2.30
2023-04-05T10:23:08.602Z,3.40
2023-04-05T10:33:42.831Z,4.50
2023-04-05T10:44:18.868Z,2.90
2023-04-05T10:54:53.780Z,2.60
2023-04-05T11:05:37.912Z,2.90
2023-04-05T11:16:13.212Z,3.00
2023-04-05T11:26:56.830Z,3.80
2023-04-05T11:37:45.947Z,4.20
2023-04-05T11:48:13.452Z,2.90
2023-04-05T11:58:39.737Z,2.50
2023-04-05T12:09:10.168Z,2.70
2023-04-05T12:19:37.784Z,3.10
2023-04-05T12:30:15.856Z,2.80
2023-04-05T12:40:43.782Z,2.70
2023-04-05T12:51:18.036Z,3.10
2023-04-05T13:01:44.120Z,2.20
2023-04-05T13:12:09.871Z,2.50
2023-04-05T13:22:35.925Z,2.40
2023-04-05T13:33:02.008Z,2.10
2023-04-05T13:43:28.309Z,2.50
2023-04-05T13:53:54.293Z,1.60
2023-04-05T14:04:20.469Z,2.20
2023-04-05T14:14:47.165Z,2.10
2023-04-05T14:25:13.407Z,2.00
2023-04-05T14:35:38.856Z,2.80
2023-04-05T14:46:04.413Z,2.30
2023-04-05T14:56:30.694Z,2.50
2023-04-05T15:06:56.509Z,2.40
2023-04-05T15:17:23.126Z,2.90
2023-04-05T15:27:48.622Z,2.30
2023-04-05T15:38:14.704Z,2.60
2023-04-05T15:48:40.845Z,3.00
2023-04-05T15:59:06.676Z,3.10
2023-04-05T16:09:32.656Z,2.80
2023-04-05T16:19:58.782Z,2.80
2023-04-05T16:30:24.352Z,4.10
2023-04-05T16:40:50.027Z,6.40
2023-04-05T16:51:16.203Z,5.90
2023-04-05T17:13:26.351Z,5.20
2023-04-05T17:23:52.503Z,5.30
2023-04-05T17:34:18.201Z,6.50
2023-04-05T17:44:43.811Z,5.80
2023-04-05T17:55:11.263Z,9.50
2023-04-05T18:05:37.793Z,8.30
2023-04-05T18:16:03.587Z,7.80
2023-04-05T18:26:30.130Z,5.20
2023-04-05T18:36:55.790Z,5.10
2023-04-05T18:47:21.727Z,5.30
2023-04-05T18:57:47.433Z,8.70
2023-04-05T19:08:13.262Z,14.00
2023-04-05T19:18:39.116Z,15.50
2023-04-05T19:29:05.578Z,8.90
2023-04-05T19:39:31.446Z,7.80
2023-04-05T19:49:58.561Z,14.60
2023-04-05T20:00:36.202Z,16.60
2023-04-05T20:11:01.813Z,16.20
2023-04-05T20:21:28.725Z,16.10
2023-04-05T20:31:54.941Z,13.40
2023-04-05T20:42:20.523Z,10.70
2023-04-05T20:52:46.906Z,9.20
2023-04-05T21:03:13.627Z,14.70
2023-04-05T21:13:39.310Z,20.80
2023-04-05T21:24:05.550Z,23.50
2023-04-05T21:34:31.330Z,25.90
2023-04-05T21:44:57.062Z,23.20
2023-04-05T21:55:22.872Z,25.80
2023-04-05T22:05:49.254Z,21.90
2023-04-05T22:16:15.063Z,19.20
2023-04-05T22:26:43.045Z,23.40
2023-04-05T22:37:08.596Z,26.90
2023-04-05T22:47:34.574Z,22.10
2023-04-05T22:58:00.749Z,29.30
2023-04-05T23:08:27.552Z,34.00
2023-04-05T23:18:53.417Z,29.10
2023-04-05T23:29:19.807Z,22.10
2023-04-05T23:39:45.797Z,23.10
2023-04-05T23:50:13.264Z,26.60
